Bow Mar, Colorado
Current Conditions -  °F | °C
As of 3:53 AM on Monday 22 Dec 2014 (Local Time) from KAPA Reporting Station
Broken Clouds Broken Clouds  
Wind Chill: 28°   Ceiling: 11000
Heat Index: 28°   Visibility: 10mi
Dew Point: 27°   Wind: 0mph
Humidity: 96%   Direction: NA
Pressure: 29.72"   Gusts: NA
Location:  39.5977°N, 105.071°W
Report Text: KAPA 221053Z 00000KT 10SM BKN110 M02/M03 A2972 RMK AO2 SLP074 T10221028
Loading
Personal Weather Stations






























Interactive Weather Map New forecast layout! Learn more

10-Day Weather Forecast

Advertisements
Track Severe Weather on mobile